createdAt,value
2023-10-03T00:00:45.722Z,11.19
2023-10-03T00:03:14.977Z,11.19
2023-10-03T00:05:46.546Z,11.16
2023-10-03T00:08:14.910Z,11.14
2023-10-03T00:10:42.546Z,11.07
2023-10-03T00:13:13.058Z,11.03
2023-10-03T00:15:45.922Z,10.99
2023-10-03T00:18:14.911Z,10.91
2023-10-03T00:20:43.487Z,10.88
2023-10-03T00:23:11.160Z,10.85
2023-10-03T00:25:40.095Z,10.83
2023-10-03T00:28:07.883Z,10.80
2023-10-03T00:30:41.756Z,10.76
2023-10-03T00:33:15.313Z,10.75
2023-10-03T00:35:44.119Z,10.71
2023-10-03T00:38:16.236Z,10.75
2023-10-03T00:40:50.216Z,10.75
2023-10-03T00:43:18.230Z,10.73
2023-10-03T00:45:46.696Z,10.70
2023-10-03T00:48:16.782Z,10.66
2023-10-03T00:50:44.653Z,10.62
2023-10-03T00:53:14.649Z,10.54
2023-10-03T00:55:45.246Z,10.51
2023-10-03T00:58:14.010Z,10.49
2023-10-03T01:00:44.927Z,10.49
2023-10-03T01:03:28.881Z,10.50
2023-10-03T01:06:00.542Z,10.50
2023-10-03T01:08:30.746Z,10.49
2023-10-03T01:11:00.174Z,10.47
2023-10-03T01:13:28.629Z,10.44
2023-10-03T01:15:57.169Z,10.43
2023-10-03T01:18:31.191Z,10.39
2023-10-03T01:21:02.126Z,10.41
2023-10-03T01:23:35.485Z,10.39
2023-10-03T01:26:05.845Z,10.35
2023-10-03T01:28:36.149Z,10.32
2023-10-03T01:31:03.590Z,10.28
2023-10-03T01:33:33.140Z,10.21
2023-10-03T01:36:00.552Z,10.16
2023-10-03T01:38:28.493Z,10.13
2023-10-03T01:41:02.219Z,10.06
2023-10-03T01:43:29.835Z,10.06
2023-10-03T01:45:57.918Z,9.98
2023-10-03T01:48:26.594Z,9.92
2023-10-03T01:50:54.151Z,9.91
2023-10-03T01:53:21.762Z,9.86
2023-10-03T01:55:51.455Z,9.82
2023-10-03T01:58:25.331Z,9.78
2023-10-03T02:00:53.040Z,9.74
2023-10-03T02:03:22.156Z,9.69
2023-10-03T02:05:49.983Z,9.63
2023-10-03T02:08:21.461Z,9.61
2023-10-03T02:10:50.724Z,9.53
2023-10-03T02:13:23.177Z,9.49
2023-10-03T02:15:57.607Z,9.43
2023-10-03T02:18:25.767Z,9.37
2023-10-03T02:21:02.784Z,9.33
2023-10-03T02:23:30.958Z,9.30
2023-10-03T02:26:06.191Z,9.27
2023-10-03T02:28:35.624Z,9.25
2023-10-03T02:31:08.398Z,9.21
2023-10-03T02:33:41.544Z,9.18
2023-10-03T02:36:11.552Z,9.14
2023-10-03T02:38:40.200Z,9.13
2023-10-03T02:41:09.133Z,9.11
2023-10-03T02:43:44.846Z,9.08
2023-10-03T02:46:20.745Z,9.06
2023-10-03T02:48:51.699Z,9.02
2023-10-03T02:51:19.138Z,9.00
2023-10-03T02:53:47.594Z,8.97
2023-10-03T02:56:16.777Z,8.93
2023-10-03T02:58:45.966Z,8.90
2023-10-03T03:01:15.191Z,8.80
2023-10-03T03:03:43.979Z,8.82
2023-10-03T03:06:15.733Z,8.71
2023-10-03T03:08:46.755Z,8.72
2023-10-03T03:11:18.300Z,8.73
2023-10-03T03:13:47.200Z,8.65
2023-10-03T03:16:16.272Z,8.61
2023-10-03T03:18:45.621Z,8.55
2023-10-03T03:21:16.736Z,8.55
2023-10-03T03:23:58.335Z,8.54
2023-10-03T03:26:53.036Z,8.52
2023-10-03T03:29:23.216Z,8.48
2023-10-03T03:31:53.087Z,8.48
2023-10-03T03:34:21.316Z,8.48
2023-10-03T03:36:51.334Z,8.46
2023-10-03T03:39:22.288Z,8.43
2023-10-03T03:41:50.494Z,8.42
2023-10-03T03:44:20.188Z,8.42
2023-10-03T03:46:50.009Z,8.40
2023-10-03T03:49:20.536Z,8.40
2023-10-03T03:51:48.072Z,8.37
2023-10-03T03:54:15.604Z,8.37
2023-10-03T03:56:42.962Z,8.36
2023-10-03T03:59:11.149Z,8.35
2023-10-03T04:01:39.787Z,8.37
2023-10-03T04:04:09.520Z,8.35
2023-10-03T04:06:37.328Z,8.36
2023-10-03T04:09:09.041Z,8.38
2023-10-03T04:11:38.366Z,8.43
2023-10-03T04:14:07.862Z,8.46
2023-10-03T04:16:46.112Z,8.51
2023-10-03T04:19:15.270Z,8.56
2023-10-03T04:21:43.511Z,8.58
2023-10-03T04:24:13.245Z,8.62
2023-10-03T04:26:44.792Z,8.64
2023-10-03T04:29:15.951Z,8.68
2023-10-03T04:31:44.881Z,8.74
2023-10-03T04:34:13.518Z,8.73
2023-10-03T04:36:42.795Z,8.77
2023-10-03T04:39:12.572Z,8.76
2023-10-03T04:41:45.070Z,8.74
2023-10-03T04:44:16.581Z,8.79
2023-10-03T04:46:46.133Z,8.80
2023-10-03T04:49:13.881Z,8.92
2023-10-03T04:51:47.494Z,8.98
2023-10-03T04:54:17.735Z,9.03
2023-10-03T04:56:46.555Z,9.05
2023-10-03T04:59:15.025Z,9.05
2023-10-03T05:01:43.191Z,9.01
2023-10-03T05:04:13.737Z,8.97
2023-10-03T05:06:44.605Z,9.02
2023-10-03T05:09:12.674Z,9.20
2023-10-03T05:11:40.231Z,9.44
2023-10-03T05:14:07.599Z,9.50
2023-10-03T05:16:35.362Z,9.48
2023-10-03T05:19:03.194Z,9.43
2023-10-03T05:21:31.700Z,9.37
2023-10-03T05:24:01.136Z,9.34
2023-10-03T05:26:28.627Z,9.32
2023-10-03T05:28:57.447Z,9.35
2023-10-03T05:31:25.372Z,9.46
2023-10-03T05:33:53.059Z,9.66
2023-10-03T05:36:20.713Z,9.81
2023-10-03T05:38:48.109Z,10.04
2023-10-03T05:41:22.224Z,10.27
2023-10-03T05:43:49.851Z,10.44
2023-10-03T05:46:17.378Z,10.65
2023-10-03T05:48:44.904Z,10.82
2023-10-03T05:51:13.496Z,10.96
2023-10-03T05:53:43.217Z,11.10
2023-10-03T05:56:14.309Z,11.23
2023-10-03T05:58:44.547Z,11.35
2023-10-03T06:01:13.888Z,11.50
2023-10-03T06:03:41.670Z,11.67
2023-10-03T06:06:09.341Z,11.83
2023-10-03T06:08:36.749Z,11.92
2023-10-03T06:11:07.068Z,12.02
2023-10-03T06:13:34.536Z,12.15
2023-10-03T06:16:07.286Z,12.27
2023-10-03T06:18:34.842Z,12.27
2023-10-03T06:21:02.444Z,12.29
2023-10-03T06:23:29.848Z,12.33
2023-10-03T06:25:57.135Z,12.37
2023-10-03T06:28:24.496Z,12.44
2023-10-03T06:30:52.377Z,12.51
2023-10-03T06:33:21.396Z,12.54
2023-10-03T06:35:51.802Z,12.64
2023-10-03T06:38:21.176Z,12.83
2023-10-03T06:40:48.530Z,13.07
2023-10-03T06:43:18.852Z,13.21
2023-10-03T06:45:46.887Z,13.33
2023-10-03T06:48:14.734Z,13.40
2023-10-03T06:50:44.121Z,13.48
2023-10-03T06:53:14.146Z,13.57
2023-10-03T06:55:41.369Z,13.64
2023-10-03T06:58:08.781Z,13.63
2023-10-03T07:00:36.330Z,13.54
2023-10-03T07:03:05.144Z,13.40
2023-10-03T07:05:33.156Z,13.39
2023-10-03T07:08:02.029Z,13.40
2023-10-03T07:10:29.397Z,13.34
2023-10-03T07:12:59.169Z,13.26
2023-10-03T07:15:26.369Z,13.43
2023-10-03T07:17:53.741Z,13.46
2023-10-03T07:20:21.360Z,13.45
2023-10-03T07:22:48.647Z,13.43
2023-10-03T07:25:17.759Z,13.60
2023-10-03T07:27:46.727Z,13.57
2023-10-03T07:30:15.992Z,13.58
2023-10-03T07:32:43.604Z,13.65
2023-10-03T07:35:12.614Z,13.48
2023-10-03T07:37:42.954Z,13.38
2023-10-03T07:40:11.308Z,13.44
2023-10-03T07:42:41.638Z,13.51
2023-10-03T07:45:10.592Z,13.66
2023-10-03T07:47:38.966Z,13.76
2023-10-03T07:50:07.327Z,13.89
2023-10-03T07:52:35.958Z,14.01
2023-10-03T07:55:04.962Z,14.07
2023-10-03T07:57:32.993Z,14.11
2023-10-03T08:00:04.870Z,14.08
2023-10-03T08:02:35.499Z,14.23
2023-10-03T08:05:03.271Z,14.49
2023-10-03T08:07:32.861Z,14.88
2023-10-03T08:10:04.463Z,15.08
2023-10-03T08:12:39.549Z,15.02
2023-10-03T08:15:18.619Z,15.05
2023-10-03T08:17:49.684Z,15.30
2023-10-03T08:20:19.416Z,15.61
2023-10-03T08:22:52.790Z,15.67
2023-10-03T08:25:21.545Z,15.79
2023-10-03T08:27:51.092Z,15.98
2023-10-03T08:30:29.447Z,15.82
2023-10-03T08:32:59.434Z,15.60
2023-10-03T08:35:36.242Z,15.58
2023-10-03T08:38:06.503Z,15.61
2023-10-03T08:40:38.207Z,15.44
2023-10-03T08:43:09.442Z,15.28
2023-10-03T08:45:42.460Z,15.22
2023-10-03T08:48:11.668Z,15.62
2023-10-03T08:50:48.409Z,16.09
2023-10-03T08:53:28.059Z,16.41
2023-10-03T08:56:00.183Z,16.69
2023-10-03T08:58:28.392Z,16.89
2023-10-03T09:01:03.750Z,17.12
2023-10-03T09:03:49.704Z,17.34
2023-10-03T09:06:21.781Z,17.51
2023-10-03T09:08:52.145Z,17.51
2023-10-03T09:11:21.562Z,17.30
2023-10-03T09:13:50.257Z,17.17
2023-10-03T09:16:21.090Z,17.10
2023-10-03T09:19:00.553Z,16.96
2023-10-03T09:21:31.094Z,16.68
2023-10-03T09:24:10.869Z,16.39
2023-10-03T09:26:47.465Z,16.13
2023-10-03T09:29:32.526Z,16.07
2023-10-03T09:32:15.500Z,16.03
2023-10-03T09:34:44.784Z,16.13
2023-10-03T09:37:13.146Z,16.10
2023-10-03T09:39:49.715Z,16.03
2023-10-03T09:42:20.623Z,15.90
2023-10-03T09:44:53.219Z,15.90
2023-10-03T09:47:29.166Z,15.88
2023-10-03T09:50:07.954Z,16.11
2023-10-03T09:52:38.222Z,16.59
2023-10-03T09:55:27.648Z,16.90
2023-10-03T09:58:01.039Z,17.08
2023-10-03T10:00:43.099Z,17.06
2023-10-03T10:03:15.794Z,17.18
2023-10-03T10:05:54.246Z,17.33
2023-10-03T10:08:33.592Z,17.48
2023-10-03T10:11:11.053Z,17.36
2023-10-03T10:13:44.238Z,17.35
2023-10-03T10:16:13.135Z,17.13
2023-10-03T10:19:02.078Z,16.64
2023-10-03T10:21:32.804Z,16.42
2023-10-03T10:24:26.725Z,16.52
2023-10-03T10:26:54.786Z,16.61
2023-10-03T10:29:24.709Z,16.72
2023-10-03T10:32:00.888Z,16.98
2023-10-03T10:34:34.187Z,17.30
2023-10-03T10:37:06.383Z,17.39
2023-10-03T10:40:15.971Z,17.35
2023-10-03T10:43:06.058Z,16.93
2023-10-03T10:45:41.104Z,16.61
2023-10-03T10:48:10.017Z,16.46
2023-10-03T10:51:12.195Z,16.33
2023-10-03T10:53:42.392Z,16.48
2023-10-03T10:56:10.905Z,16.71
2023-10-03T10:58:52.038Z,16.98
2023-10-03T11:01:20.238Z,17.07
2023-10-03T11:03:48.782Z,17.31
2023-10-03T11:06:19.508Z,17.53
2023-10-03T11:08:49.227Z,17.47
2023-10-03T11:11:17.571Z,17.45
2023-10-03T11:13:47.304Z,17.38
2023-10-03T11:16:26.530Z,17.20
2023-10-03T11:18:56.413Z,16.99
2023-10-03T11:21:25.886Z,16.97
2023-10-03T11:24:14.626Z,16.87
2023-10-03T11:26:53.165Z,16.85
2023-10-03T11:29:37.586Z,17.01
2023-10-03T11:32:06.906Z,17.23
2023-10-03T11:34:41.298Z,17.36
2023-10-03T11:37:09.987Z,17.41
2023-10-03T11:39:40.176Z,17.19
2023-10-03T11:42:25.159Z,16.96
2023-10-03T11:44:58.637Z,16.83
2023-10-03T11:47:25.946Z,16.82
2023-10-03T11:49:53.580Z,16.79
2023-10-03T11:52:23.318Z,16.83
2023-10-03T11:54:51.097Z,16.87
2023-10-03T11:57:19.116Z,16.95
2023-10-03T11:59:46.738Z,17.11
2023-10-03T12:02:14.112Z,17.10
2023-10-03T12:04:42.121Z,17.03
2023-10-03T12:07:09.425Z,17.00
2023-10-03T12:09:38.145Z,17.01
2023-10-03T12:12:05.749Z,17.10
2023-10-03T12:14:33.543Z,16.84
2023-10-03T12:17:01.173Z,16.65
2023-10-03T12:19:28.431Z,16.56
2023-10-03T12:21:55.836Z,16.36
2023-10-03T12:24:23.334Z,16.29
2023-10-03T12:26:53.641Z,16.34
2023-10-03T12:29:23.412Z,16.58
2023-10-03T12:31:50.907Z,16.68
2023-10-03T12:34:18.575Z,16.66
2023-10-03T12:36:46.234Z,16.71
2023-10-03T12:39:15.525Z,16.96
2023-10-03T12:41:42.831Z,17.05
2023-10-03T12:44:11.875Z,17.24
2023-10-03T12:46:39.649Z,17.20
2023-10-03T12:49:09.116Z,17.13
2023-10-03T12:51:36.621Z,16.99
2023-10-03T12:54:06.420Z,16.82
2023-10-03T12:56:34.076Z,16.55
2023-10-03T12:59:01.926Z,16.60
2023-10-03T13:01:30.847Z,16.56
2023-10-03T13:04:09.127Z,16.51
2023-10-03T13:06:37.028Z,16.42
2023-10-03T13:09:06.302Z,16.29
2023-10-03T13:11:33.717Z,16.22
2023-10-03T13:14:05.263Z,16.17
2023-10-03T13:16:34.088Z,16.26
2023-10-03T13:19:02.556Z,16.22
2023-10-03T13:21:31.239Z,16.30
2023-10-03T13:23:59.619Z,16.32
2023-10-03T13:26:27.156Z,16.32
2023-10-03T13:28:54.663Z,16.25
2023-10-03T13:31:22.771Z,16.19
2023-10-03T13:33:51.953Z,16.11
2023-10-03T13:36:20.143Z,15.94
2023-10-03T13:38:47.606Z,15.82
2023-10-03T13:41:15.177Z,15.72
2023-10-03T13:43:42.561Z,15.56
2023-10-03T13:46:09.869Z,15.49
2023-10-03T13:48:37.417Z,15.48
2023-10-03T13:51:06.433Z,15.41
2023-10-03T13:53:33.881Z,15.35
2023-10-03T13:56:02.564Z,15.20
2023-10-03T13:58:30.810Z,15.16
2023-10-03T14:01:02.012Z,15.17
2023-10-03T14:03:32.335Z,15.23
2023-10-03T14:06:01.165Z,15.18
2023-10-03T14:08:30.055Z,15.06
2023-10-03T14:10:59.057Z,15.03
2023-10-03T14:13:29.214Z,14.99
2023-10-03T14:15:57.459Z,14.98
2023-10-03T14:18:25.059Z,15.00
2023-10-03T14:20:52.511Z,15.03
2023-10-03T14:23:20.372Z,14.96
2023-10-03T14:25:49.865Z,14.95
2023-10-03T14:28:17.219Z,14.92
2023-10-03T14:30:46.171Z,14.89
2023-10-03T14:33:14.501Z,14.87
2023-10-03T14:35:45.151Z,14.83
2023-10-03T14:38:13.795Z,14.79
2023-10-03T14:40:41.640Z,14.75
2023-10-03T14:43:12.193Z,14.69
2023-10-03T14:45:39.979Z,14.67
2023-10-03T14:48:08.267Z,14.58
2023-10-03T14:50:35.989Z,14.58
2023-10-03T14:53:03.772Z,14.57
2023-10-03T14:55:31.346Z,14.50
2023-10-03T14:57:59.940Z,14.45
2023-10-03T15:00:28.903Z,14.35
2023-10-03T15:02:56.322Z,14.31
2023-10-03T15:05:24.845Z,14.29
2023-10-03T15:07:52.645Z,14.29
2023-10-03T15:10:20.157Z,14.23
2023-10-03T15:12:47.577Z,14.20
2023-10-03T15:15:15.288Z,14.17
2023-10-03T15:17:44.255Z,14.13
2023-10-03T15:20:13.341Z,14.08
2023-10-03T15:22:40.751Z,13.98
2023-10-03T15:25:09.127Z,13.97
2023-10-03T15:27:37.119Z,13.93
2023-10-03T15:30:07.765Z,13.91
2023-10-03T15:32:35.156Z,13.86
2023-10-03T15:35:06.103Z,13.84
2023-10-03T15:37:33.955Z,13.82
2023-10-03T15:40:02.614Z,13.76
2023-10-03T15:42:33.006Z,13.71
2023-10-03T15:47:37.238Z,13.62
2023-10-03T15:50:07.553Z,13.57
2023-10-03T15:52:35.079Z,13.52
2023-10-03T15:55:03.807Z,13.50
2023-10-03T15:57:34.254Z,13.45
2023-10-03T16:00:06.974Z,13.44
2023-10-03T16:02:34.323Z,13.45
2023-10-03T16:05:02.309Z,13.44
2023-10-03T16:07:33.074Z,13.36
2023-10-03T16:10:05.513Z,13.32
2023-10-03T16:12:35.315Z,13.30
2023-10-03T16:15:04.260Z,13.27
2023-10-03T16:17:34.123Z,13.30
2023-10-03T16:20:07.155Z,13.25
2023-10-03T16:22:36.308Z,13.23
2023-10-03T16:25:06.589Z,13.19
2023-10-03T16:27:35.333Z,13.15
2023-10-03T16:30:07.036Z,13.15
2023-10-03T16:32:35.447Z,13.13
2023-10-03T16:35:03.545Z,13.12
2023-10-03T16:37:33.143Z,13.10
2023-10-03T16:40:02.305Z,13.11
2023-10-03T16:42:32.378Z,13.06
2023-10-03T16:45:00.068Z,13.09
2023-10-03T16:47:27.462Z,13.06
2023-10-03T16:49:54.847Z,13.08
2023-10-03T16:52:22.120Z,13.03
2023-10-03T16:54:49.443Z,13.01
2023-10-03T16:57:18.220Z,12.97
2023-10-03T16:59:45.503Z,13.01
2023-10-03T17:02:12.851Z,13.02
2023-10-03T17:04:40.339Z,12.97
2023-10-03T17:07:08.346Z,12.98
2023-10-03T17:09:36.526Z,12.98
2023-10-03T17:12:04.805Z,12.99
2023-10-03T17:14:35.127Z,13.04
2023-10-03T17:17:03.121Z,12.94
2023-10-03T17:19:31.432Z,12.90
2023-10-03T17:21:59.031Z,12.86
2023-10-03T17:24:26.947Z,12.84
2023-10-03T17:26:57.913Z,12.84
2023-10-03T17:29:29.285Z,12.81
2023-10-03T17:32:01.143Z,12.78
2023-10-03T17:34:30.811Z,12.75
2023-10-03T17:36:58.570Z,12.71
2023-10-03T17:39:28.265Z,12.70
2023-10-03T17:41:58.896Z,12.75
2023-10-03T17:44:26.189Z,12.65
2023-10-03T17:46:53.913Z,12.68
2023-10-03T17:49:23.988Z,12.65
2023-10-03T17:51:51.668Z,12.64
2023-10-03T17:54:31.395Z,12.63
2023-10-03T17:57:01.247Z,12.55
2023-10-03T17:59:29.983Z,12.55
2023-10-03T18:01:58.494Z,12.54
2023-10-03T18:04:28.101Z,12.55
2023-10-03T18:06:59.929Z,12.51
2023-10-03T18:09:28.491Z,12.57
2023-10-03T18:11:56.588Z,12.59
2023-10-03T18:14:24.532Z,12.61
2023-10-03T18:16:53.044Z,12.63
2023-10-03T18:19:20.963Z,12.67
2023-10-03T18:21:50.306Z,12.67
2023-10-03T18:24:17.773Z,12.73
2023-10-03T18:26:45.440Z,12.73
2023-10-03T18:29:17.195Z,12.77
2023-10-03T18:31:44.793Z,12.74
2023-10-03T18:34:12.410Z,12.74
2023-10-03T18:36:41.047Z,12.72
2023-10-03T18:39:10.802Z,12.80
2023-10-03T18:41:38.673Z,12.75
2023-10-03T18:44:06.199Z,12.77
2023-10-03T18:46:33.619Z,12.72
2023-10-03T18:49:00.979Z,12.79
2023-10-03T18:51:28.368Z,12.76
2023-10-03T18:53:56.360Z,12.77
2023-10-03T18:56:26.039Z,12.75
2023-10-03T18:58:56.786Z,12.83
2023-10-03T19:01:37.610Z,12.81
2023-10-03T19:04:12.205Z,12.70
2023-10-03T19:06:39.860Z,12.70
2023-10-03T19:09:08.239Z,12.72
2023-10-03T19:11:37.317Z,12.72
2023-10-03T19:14:04.928Z,12.70
2023-10-03T19:16:33.713Z,12.67
2023-10-03T19:19:01.588Z,12.65
2023-10-03T19:21:29.235Z,12.67
2023-10-03T19:23:58.427Z,12.68
2023-10-03T19:26:25.896Z,12.67
2023-10-03T19:28:54.935Z,12.73
2023-10-03T19:31:24.646Z,12.77
2023-10-03T19:33:52.055Z,12.77
2023-10-03T19:36:21.317Z,12.79
2023-10-03T19:38:49.444Z,12.83
2023-10-03T19:41:17.936Z,12.80
2023-10-03T19:43:46.936Z,12.78
2023-10-03T19:46:24.752Z,12.80
2023-10-03T19:48:54.729Z,12.82
2023-10-03T19:51:23.573Z,12.77
2023-10-03T19:53:54.302Z,12.72
2023-10-03T19:56:25.368Z,12.71
2023-10-03T19:58:52.899Z,12.70
2023-10-03T20:01:22.562Z,12.69
2023-10-03T20:03:51.842Z,12.71
2023-10-03T20:06:20.296Z,12.71
2023-10-03T20:08:48.457Z,12.63
2023-10-03T20:11:16.234Z,12.72
2023-10-03T20:13:44.205Z,12.64
2023-10-03T20:16:12.650Z,12.63
2023-10-03T20:18:42.384Z,12.64
2023-10-03T20:21:10.204Z,12.61
2023-10-03T20:23:38.599Z,12.63
2023-10-03T20:26:06.037Z,12.59
2023-10-03T20:28:33.853Z,12.59
2023-10-03T20:31:01.231Z,12.58
2023-10-03T20:33:28.886Z,12.60
2023-10-03T20:35:57.913Z,12.63
2023-10-03T20:38:25.282Z,12.61
2023-10-03T20:40:54.976Z,12.64
2023-10-03T20:43:22.863Z,12.62
2023-10-03T20:45:50.627Z,12.71
2023-10-03T20:48:18.242Z,12.65
2023-10-03T20:50:45.889Z,12.69
2023-10-03T20:53:15.901Z,12.70
2023-10-03T20:55:43.500Z,12.68
2023-10-03T20:58:13.722Z,12.71
2023-10-03T21:00:41.183Z,12.68
2023-10-03T21:03:10.066Z,12.72
2023-10-03T21:05:40.909Z,12.78
2023-10-03T21:08:10.200Z,12.84
2023-10-03T21:10:41.947Z,12.84
2023-10-03T21:13:09.523Z,12.88
2023-10-03T21:15:37.189Z,12.85
2023-10-03T21:18:06.605Z,12.84
2023-10-03T21:20:34.285Z,12.75
2023-10-03T21:23:04.542Z,12.77
2023-10-03T21:25:35.018Z,12.76
2023-10-03T21:28:04.868Z,12.71
2023-10-03T21:30:32.343Z,12.74
2023-10-03T21:32:59.991Z,12.79
2023-10-03T21:35:27.486Z,12.73
2023-10-03T21:37:55.031Z,12.64
2023-10-03T21:40:22.374Z,12.69
2023-10-03T21:42:50.955Z,12.61
2023-10-03T21:45:19.955Z,12.54
2023-10-03T21:47:47.781Z,12.60
2023-10-03T21:50:16.089Z,12.55
2023-10-03T21:52:43.365Z,12.51
2023-10-03T21:55:11.240Z,12.53
2023-10-03T21:57:38.642Z,12.55
2023-10-03T22:00:23.042Z,12.48
2023-10-03T22:02:54.468Z,12.43
2023-10-03T22:05:23.112Z,12.42
2023-10-03T22:07:50.945Z,12.40
2023-10-03T22:10:20.176Z,12.36
2023-10-03T22:12:49.288Z,12.33
2023-10-03T22:15:19.261Z,12.29
2023-10-03T22:17:47.298Z,12.28
2023-10-03T22:20:16.789Z,12.25
2023-10-03T22:22:44.217Z,12.26
2023-10-03T22:25:12.048Z,12.21
2023-10-03T22:27:39.942Z,12.16
2023-10-03T22:30:09.263Z,12.14
2023-10-03T22:32:36.624Z,12.17
2023-10-03T22:35:04.063Z,12.16
2023-10-03T22:37:34.131Z,12.16
2023-10-03T22:40:02.240Z,12.18
2023-10-03T22:42:31.722Z,12.16
2023-10-03T22:44:59.229Z,12.18
2023-10-03T22:47:26.547Z,12.17
2023-10-03T22:49:53.969Z,12.16
2023-10-03T22:52:21.328Z,12.21
2023-10-03T22:54:50.040Z,12.18
2023-10-03T22:57:21.050Z,12.21
2023-10-03T22:59:49.946Z,12.19
2023-10-03T23:02:17.411Z,12.15
2023-10-03T23:04:45.390Z,12.21
2023-10-03T23:07:12.862Z,12.15
2023-10-03T23:09:40.610Z,12.13
2023-10-03T23:12:11.978Z,12.09
2023-10-03T23:14:39.535Z,12.06
2023-10-03T23:17:06.829Z,12.07
2023-10-03T23:19:36.109Z,12.00
2023-10-03T23:22:03.925Z,12.07
2023-10-03T23:24:31.385Z,12.08
2023-10-03T23:26:59.058Z,12.06
2023-10-03T23:29:27.980Z,12.04
2023-10-03T23:31:55.677Z,12.07
2023-10-03T23:34:23.096Z,12.05
2023-10-03T23:36:50.307Z,12.03
2023-10-03T23:39:20.602Z,12.05
2023-10-03T23:41:48.045Z,12.07
2023-10-03T23:44:16.098Z,12.06
2023-10-03T23:46:45.018Z,12.02
2023-10-03T23:49:12.328Z,12.05
2023-10-03T23:51:40.156Z,12.09
2023-10-03T23:54:12.199Z,12.02
2023-10-03T23:56:48.632Z,12.04
2023-10-03T23:59:15.855Z,12.02
